Time;durP1;ratioP1;P1;durP2;ratioP2;P2;SDS_P1;SDS_P2;PMS_P1;PMS_P2;Temp;Humidity;BMP_temperature;BMP_pressure;BME280_temperature;BME280_humidity;BME280_pressure;Samples;Min_cycle;Max_cycle;Signal;HPM_P1;HPM_P2
2023/11/09 00:00:31;;;;;;;5.18;4.70;;;8.00;99.90;;;;;;5051486;28;20041;-62
2023/11/09 00:02:58;;;;;;;9.60;5.82;;;7.90;99.90;;;;;;5046990;28;20505;-65
2023/11/09 00:05:25;;;;;;;5.53;4.28;;;7.90;99.90;;;;;;5054095;28;20115;-62
2023/11/09 00:07:53;;;;;;;6.00;4.15;;;7.90;99.90;;;;;;5046288;28;20057;-64
2023/11/09 00:10:20;;;;;;;8.15;5.68;;;8.00;99.90;;;;;;5054601;28;20533;-64
2023/11/09 00:12:50;;;;;;;4.88;4.28;;;7.90;99.90;;;;;;5050696;28;20103;-62
2023/11/09 00:15:20;;;;;;;11.02;4.95;;;7.90;99.90;;;;;;5053479;28;20051;-62
2023/11/09 00:17:48;;;;;;;6.78;5.15;;;7.90;99.90;;;;;;5048370;28;20049;-64
2023/11/09 00:20:21;;;;;;;5.35;4.50;;;7.90;99.90;;;;;;5046443;28;20037;-66
2023/11/09 00:22:51;;;;;;;6.72;5.28;;;7.90;99.90;;;;;;5055604;28;20735;-63
2023/11/09 00:25:18;;;;;;;5.25;4.75;;;7.90;99.90;;;;;;5054137;28;20069;-62
2023/11/09 00:27:45;;;;;;;5.30;4.80;;;7.90;99.90;;;;;;5048304;28;20182;-62
2023/11/09 00:30:12;;;;;;;7.30;5.43;;;7.90;99.90;;;;;;5055874;28;20099;-61
2023/11/09 00:32:39;;;;;;;5.88;5.38;;;7.90;99.90;;;;;;5052839;28;20083;-64
2023/11/09 00:35:08;;;;;;;6.15;5.57;;;7.90;99.90;;;;;;5052463;28;20054;-62
2023/11/09 00:37:37;;;;;;;7.50;5.03;;;7.80;99.90;;;;;;5049535;28;20075;-61
2023/11/09 00:40:10;;;;;;;5.82;5.22;;;7.80;99.90;;;;;;5046496;28;20040;-61
2023/11/09 00:42:38;;;;;;;5.10;4.70;;;7.80;99.90;;;;;;5050268;28;20040;-62
2023/11/09 00:45:07;;;;;;;5.07;4.57;;;7.80;99.90;;;;;;5028016;28;20054;-62
2023/11/09 00:47:34;;;;;;;5.78;4.97;;;7.80;99.90;;;;;;5045302;28;20048;-64
2023/11/09 00:50:01;;;;;;;11.63;6.65;;;7.80;99.90;;;;;;5051529;28;20049;-64
2023/11/09 00:52:28;;;;;;;7.72;5.72;;;7.80;99.90;;;;;;5045534;28;20091;-61
2023/11/09 00:54:55;;;;;;;6.03;5.40;;;7.80;99.90;;;;;;5047959;28;20128;-68
2023/11/09 00:57:25;;;;;;;7.65;5.13;;;7.80;99.90;;;;;;5048201;28;20032;-61
2023/11/09 00:59:52;;;;;;;12.73;5.13;;;7.70;99.90;;;;;;5021078;28;20545;-62
2023/11/09 01:02:19;;;;;;;9.73;6.05;;;7.80;99.90;;;;;;5048950;28;20036;-62
2023/11/09 01:04:46;;;;;;;7.45;6.03;;;7.70;99.90;;;;;;5048062;28;20068;-61
2023/11/09 01:07:13;;;;;;;8.48;5.45;;;7.80;99.90;;;;;;5048117;28;20041;-62
2023/11/09 01:09:40;;;;;;;9.30;6.05;;;7.70;99.90;;;;;;5052522;28;20552;-62
2023/11/09 01:12:08;;;;;;;7.68;5.75;;;7.80;99.90;;;;;;5033103;28;20041;-63
2023/11/09 01:14:35;;;;;;;8.82;5.05;;;7.70;99.90;;;;;;5061159;28;20501;-62
2023/11/09 01:17:02;;;;;;;9.20;5.45;;;7.80;99.90;;;;;;5029081;28;20053;-64
2023/11/09 01:19:30;;;;;;;7.18;5.78;;;7.80;99.90;;;;;;5048064;28;20060;-63
2023/11/09 01:21:57;;;;;;;6.82;5.57;;;7.80;99.90;;;;;;5053905;28;20101;-68
2023/11/09 01:24:24;;;;;;;5.97;5.22;;;7.80;99.90;;;;;;5049745;28;20043;-64
2023/11/09 01:26:51;;;;;;;5.57;4.93;;;7.80;99.90;;;;;;5031572;28;20045;-61
2023/11/09 01:29:21;;;;;;;5.32;4.63;;;7.80;99.90;;;;;;5057629;28;20040;-61
2023/11/09 01:31:49;;;;;;;7.10;5.38;;;7.80;99.90;;;;;;5048780;28;20049;-67
2023/11/09 01:34:16;;;;;;;5.60;5.15;;;7.80;99.90;;;;;;5055244;28;20041;-62
2023/11/09 01:36:43;;;;;;;5.60;4.70;;;7.80;99.90;;;;;;5053859;28;20124;-64
2023/11/09 01:39:12;;;;;;;6.85;5.32;;;7.70;99.90;;;;;;5052017;28;20467;-62
2023/11/09 01:41:42;;;;;;;4.82;4.28;;;7.80;99.90;;;;;;5052012;28;20044;-62
2023/11/09 01:44:09;;;;;;;6.38;4.65;;;7.70;99.90;;;;;;5050012;28;20033;-60
2023/11/09 01:46:40;;;;;;;4.88;4.47;;;7.70;99.90;;;;;;5048222;28;20083;-64
2023/11/09 01:49:10;;;;;;;7.47;5.85;;;7.70;99.90;;;;;;5029627;28;20045;-66
2023/11/09 01:51:39;;;;;;;4.93;4.07;;;7.70;99.90;;;;;;5048181;28;20120;-65
2023/11/09 01:54:07;;;;;;;3.97;3.58;;;7.70;99.90;;;;;;5055900;28;20044;-63
2023/11/09 01:56:35;;;;;;;6.53;4.95;;;7.70;99.90;;;;;;5057848;28;20048;-64
2023/11/09 01:59:04;;;;;;;4.82;4.30;;;7.70;99.90;;;;;;5029831;28;20486;-66
2023/11/09 02:01:33;;;;;;;5.85;5.30;;;7.70;99.90;;;;;;5044039;28;20045;-64
2023/11/09 02:04:01;;;;;;;6.88;4.45;;;7.70;99.90;;;;;;5034965;28;20037;-64
2023/11/09 02:06:29;;;;;;;9.25;4.90;;;7.70;99.90;;;;;;5063728;28;20402;-63
2023/11/09 02:08:58;;;;;;;7.10;5.15;;;7.70;99.90;;;;;;5055645;28;20059;-63
2023/11/09 02:11:25;;;;;;;4.00;3.63;;;7.70;99.90;;;;;;5052459;28;20041;-61
2023/11/09 02:13:53;;;;;;;6.10;4.95;;;7.70;99.90;;;;;;5052085;28;20040;-62
2023/11/09 02:16:20;;;;;;;7.55;3.97;;;7.70;99.90;;;;;;5038096;28;20048;-61
2023/11/09 02:18:47;;;;;;;4.55;4.15;;;7.70;99.90;;;;;;5035798;28;20068;-63
2023/11/09 02:21:17;;;;;;;5.25;3.00;;;7.70;99.90;;;;;;5051946;28;20045;-67
2023/11/09 02:23:48;;;;;;;5.35;3.60;;;7.70;99.90;;;;;;5051395;28;20037;-63
2023/11/09 02:26:15;;;;;;;3.67;3.38;;;7.70;99.90;;;;;;5058873;28;20041;-61
2023/11/09 02:28:46;;;;;;;7.65;4.07;;;7.70;99.90;;;;;;5037531;28;20060;-61
2023/11/09 02:31:17;;;;;;;4.63;4.22;;;7.80;99.90;;;;;;5036321;28;20047;-62
2023/11/09 02:33:44;;;;;;;4.60;3.83;;;7.70;99.90;;;;;;5050023;28;20051;-62
2023/11/09 02:36:11;;;;;;;7.88;3.83;;;7.70;99.90;;;;;;5048310;28;20048;-64
2023/11/09 02:38:38;;;;;;;4.93;3.53;;;7.70;99.90;;;;;;5052422;28;20047;-61
2023/11/09 02:41:08;;;;;;;4.97;4.35;;;7.70;99.90;;;;;;5033416;28;20056;-65
2023/11/09 02:43:40;;;;;;;3.78;3.40;;;7.70;99.90;;;;;;5053294;28;20036;-72
2023/11/09 02:46:10;;;;;;;4.55;3.97;;;7.80;99.90;;;;;;5049475;28;20059;-61
2023/11/09 02:48:38;;;;;;;5.05;3.63;;;7.80;99.90;;;;;;5050963;28;20128;-62
2023/11/09 02:51:07;;;;;;;4.90;4.32;;;7.70;99.90;;;;;;5034932;28;20053;-63
2023/11/09 02:53:34;;;;;;;4.15;2.75;;;7.70;99.90;;;;;;5056142;28;20049;-63
2023/11/09 02:56:00;;;;;;;4.88;3.85;;;7.80;99.90;;;;;;5048066;28;20038;-63
2023/11/09 02:58:29;;;;;;;4.88;3.72;;;7.70;99.90;;;;;;5034927;28;20041;-61
2023/11/09 03:00:57;;;;;;;5.32;3.80;;;7.80;99.90;;;;;;5048828;28;20107;-66
2023/11/09 03:03:24;;;;;;;3.90;3.47;;;7.80;99.90;;;;;;5034254;28;20129;-66
2023/11/09 03:05:53;;;;;;;4.47;3.78;;;7.70;99.90;;;;;;5050311;28;20068;-61
2023/11/09 03:08:20;;;;;;;3.45;3.15;;;7.70;99.90;;;;;;5045601;28;20746;-68
2023/11/09 03:10:48;;;;;;;3.60;3.13;;;7.70;99.90;;;;;;5045209;28;20041;-68
2023/11/09 03:13:15;;;;;;;6.40;3.05;;;7.80;99.90;;;;;;5048917;28;20045;-68
2023/11/09 03:15:44;;;;;;;4.40;3.67;;;7.80;99.90;;;;;;5054545;28;20037;-64
2023/11/09 03:18:11;;;;;;;5.53;2.67;;;7.70;99.90;;;;;;5051135;28;20072;-62
2023/11/09 03:20:41;;;;;;;3.97;3.63;;;7.70;99.90;;;;;;5034160;28;20037;-62
2023/11/09 03:23:08;;;;;;;2.72;2.53;;;7.80;99.90;;;;;;5048589;28;20052;-62
2023/11/09 03:25:35;;;;;;;3.95;3.00;;;7.80;99.90;;;;;;5052369;28;20033;-71
2023/11/09 03:28:02;;;;;;;2.80;2.60;;;7.80;99.90;;;;;;5050184;28;20055;-63
2023/11/09 03:30:30;;;;;;;5.25;2.92;;;7.80;99.90;;;;;;5056372;28;20417;-62
2023/11/09 03:32:57;;;;;;;3.10;2.85;;;7.80;99.90;;;;;;5050202;28;20136;-68
2023/11/09 03:35:24;;;;;;;6.13;2.80;;;7.70;99.90;;;;;;5052662;28;20041;-62
2023/11/09 03:37:52;;;;;;;2.63;2.42;;;7.70;99.90;;;;;;5046773;28;20045;-61
2023/11/09 03:40:19;;;;;;;4.50;2.28;;;7.70;99.90;;;;;;5048740;28;20037;-61
2023/11/09 03:42:46;;;;;;;4.18;2.72;;;7.70;99.90;;;;;;5048803;28;20043;-62
2023/11/09 03:45:13;;;;;;;3.97;2.53;;;7.70;99.90;;;;;;5045463;28;20380;-72
2023/11/09 03:47:40;;;;;;;2.63;2.42;;;7.70;99.90;;;;;;5049270;28;20422;-66
2023/11/09 03:50:10;;;;;;;4.25;2.47;;;7.70;99.90;;;;;;5056351;28;20040;-66
2023/11/09 03:52:39;;;;;;;6.03;2.30;;;7.70;99.90;;;;;;5056959;28;20490;-63
2023/11/09 03:55:07;;;;;;;7.75;2.70;;;7.70;99.90;;;;;;5048738;28;20033;-62
2023/11/09 03:57:38;;;;;;;3.58;2.38;;;7.70;99.90;;;;;;5053162;28;20124;-61
2023/11/09 04:00:11;;;;;;;10.88;3.00;;;7.70;99.90;;;;;;5049646;28;20064;-62
2023/11/09 04:02:42;;;;;;;4.75;2.40;;;7.70;99.90;;;;;;5051442;28;20124;-63
2023/11/09 04:05:11;;;;;;;4.00;2.53;;;7.70;99.90;;;;;;5053784;28;20383;-62
2023/11/09 04:07:43;;;;;;;6.07;2.90;;;7.70;99.90;;;;;;5051499;28;20115;-62
2023/11/09 04:10:12;;;;;;;12.68;2.75;;;7.60;99.90;;;;;;5045795;28;20049;-62
2023/11/09 04:12:40;;;;;;;4.28;1.77;;;7.60;99.90;;;;;;5053085;28;20087;-64
2023/11/09 04:15:09;;;;;;;5.25;2.22;;;7.60;99.90;;;;;;5052934;28;20119;-61
2023/11/09 04:17:36;;;;;;;3.15;2.42;;;7.50;99.90;;;;;;5053616;28;20049;-69
2023/11/09 04:20:05;;;;;;;4.20;2.47;;;7.50;99.90;;;;;;5046155;28;20045;-66
2023/11/09 04:22:34;;;;;;;3.10;2.28;;;7.50;99.90;;;;;;5047102;28;20037;-62
2023/11/09 04:25:01;;;;;;;3.85;2.10;;;7.50;99.90;;;;;;5051610;28;20078;-63
2023/11/09 04:27:29;;;;;;;2.63;2.28;;;7.40;99.90;;;;;;5055489;28;20041;-66
2023/11/09 04:29:56;;;;;;;5.50;2.17;;;7.40;99.90;;;;;;5052816;28;20061;-62
2023/11/09 04:32:23;;;;;;;3.35;2.40;;;7.40;99.90;;;;;;5049465;28;20152;-61
2023/11/09 04:34:50;;;;;;;3.22;2.50;;;7.40;99.90;;;;;;5053534;28;20438;-63
2023/11/09 04:37:20;;;;;;;2.88;2.13;;;7.40;99.90;;;;;;5053972;28;20166;-65
2023/11/09 04:39:51;;;;;;;3.17;2.05;;;7.40;99.90;;;;;;5054473;28;20129;-64
2023/11/09 04:42:24;;;;;;;;;;;7.30;99.90;;;;;;5034423;28;20440;-62
2023/11/09 04:44:53;;;;;;;2.22;1.85;;;7.30;99.90;;;;;;5052072;28;19920;-62
2023/11/09 04:47:25;;;;;;;4.22;2.65;;;7.20;99.90;;;;;;5047640;28;20068;-64
2023/11/09 04:49:58;;;;;;;3.67;3.03;;;7.20;99.90;;;;;;5046865;28;20069;-61
2023/11/09 04:52:27;;;;;;;2.05;1.95;;;7.10;99.90;;;;;;5048480;28;20049;-61
2023/11/09 04:55:07;;;;;;;2.75;2.30;;;7.10;99.90;;;;;;5051112;28;20041;-61
2023/11/09 05:08:36;;;;;;;7.95;2.97;;;7.10;99.90;;;;;;5053495;28;20730;-62
2023/11/09 05:11:03;;;;;;;4.43;2.65;;;7.00;99.90;;;;;;5048959;28;20048;-66
2023/11/09 05:13:30;;;;;;;6.30;3.00;;;7.00;99.90;;;;;;5055093;28;20033;-62
2023/11/09 05:15:57;;;;;;;5.18;3.03;;;7.00;99.90;;;;;;5050290;28;20546;-73
2023/11/09 05:18:26;;;;;;;3.42;2.75;;;7.00;99.90;;;;;;5048428;28;20582;-64
2023/11/09 05:20:53;;;;;;;4.47;3.22;;;7.00;99.90;;;;;;5053901;28;20090;-66
2023/11/09 05:23:20;;;;;;;3.60;2.80;;;6.90;99.90;;;;;;5049595;28;20542;-66
2023/11/09 05:25:47;;;;;;;6.00;3.83;;;6.90;99.90;;;;;;5044845;28;20118;-64
2023/11/09 05:28:14;;;;;;;4.82;3.53;;;6.90;99.90;;;;;;5047925;28;20049;-63
2023/11/09 05:30:41;;;;;;;5.85;4.22;;;6.90;99.90;;;;;;5047296;28;20072;-61
2023/11/09 05:33:08;;;;;;;7.47;3.63;;;6.90;99.90;;;;;;5046006;28;20048;-65
2023/11/09 05:35:35;;;;;;;10.10;4.43;;;6.80;99.90;;;;;;5049022;28;20037;-65
2023/11/09 05:38:03;;;;;;;6.03;3.90;;;6.80;99.90;;;;;;5049762;28;20053;-61
2023/11/09 05:40:30;;;;;;;6.47;3.63;;;6.80;99.90;;;;;;5056178;28;20044;-61
2023/11/09 05:42:59;;;;;;;5.55;3.55;;;6.80;99.90;;;;;;5057331;28;20051;-61
2023/11/09 05:45:26;;;;;;;8.30;4.45;;;6.80;99.90;;;;;;5051758;28;20045;-62
2023/11/09 05:47:53;;;;;;;5.28;4.78;;;6.80;99.90;;;;;;5050399;28;20041;-63
2023/11/09 05:50:20;;;;;;;8.07;5.60;;;6.80;99.90;;;;;;5050749;28;20044;-62
2023/11/09 05:52:47;;;;;;;9.90;4.28;;;6.80;99.90;;;;;;5060090;28;20660;-61
2023/11/09 05:55:17;;;;;;;5.40;4.30;;;6.80;99.90;;;;;;5055918;28;20048;-61
2023/11/09 05:57:44;;;;;;;8.95;3.97;;;6.80;99.90;;;;;;5047260;28;20300;-62
2023/11/09 06:00:13;;;;;;;8.32;4.35;;;6.80;99.90;;;;;;5052831;28;20640;-62
2023/11/09 06:02:40;;;;;;;9.55;5.65;;;6.70;99.90;;;;;;5052426;28;20575;-62
2023/11/09 06:05:07;;;;;;;8.15;6.07;;;6.70;99.90;;;;;;5058428;28;20509;-65
2023/11/09 06:07:35;;;;;;;6.97;6.00;;;6.70;99.90;;;;;;5051658;28;20116;-61
2023/11/09 06:10:03;;;;;;;6.80;6.10;;;6.70;99.90;;;;;;5055331;28;20736;-63
2023/11/09 06:12:30;;;;;;;8.15;4.30;;;6.70;99.90;;;;;;5046006;28;20376;-66
2023/11/09 06:14:57;;;;;;;7.70;4.88;;;6.60;99.90;;;;;;5052433;28;20049;-62
2023/11/09 06:17:24;;;;;;;5.78;4.78;;;6.60;99.90;;;;;;5053266;28;20049;-62
2023/11/09 06:19:51;;;;;;;8.65;4.28;;;6.70;99.90;;;;;;5033961;28;20036;-63
2023/11/09 06:22:18;;;;;;;6.15;5.18;;;6.60;99.90;;;;;;5051253;28;20075;-62
2023/11/09 06:24:45;;;;;;;6.20;4.82;;;6.60;99.90;;;;;;5049820;28;20403;-61
2023/11/09 06:27:14;;;;;;;9.18;4.57;;;6.60;99.90;;;;;;5052132;28;20088;-62
2023/11/09 06:29:41;;;;;;;7.38;4.47;;;6.60;99.90;;;;;;5050725;28;20045;-62
2023/11/09 06:32:08;;;;;;;7.90;4.65;;;6.60;99.90;;;;;;5058257;28;20040;-67
2023/11/09 06:34:35;;;;;;;4.43;3.55;;;6.70;99.90;;;;;;5054513;28;20037;-66
2023/11/09 06:37:03;;;;;;;7.15;4.22;;;6.70;99.90;;;;;;5048806;28;20129;-62
2023/11/09 06:39:29;;;;;;;9.02;4.03;;;6.70;99.90;;;;;;5052259;28;20035;-61
2023/11/09 06:41:57;;;;;;;6.57;4.30;;;6.70;99.90;;;;;;5053246;28;20037;-69
2023/11/09 06:44:24;;;;;;;14.95;4.35;;;6.70;99.90;;;;;;5052604;28;20506;-64
2023/11/09 06:46:51;;;;;;;8.63;4.70;;;6.70;99.90;;;;;;5052080;28;20045;-62
2023/11/09 06:49:18;;;;;;;9.13;4.22;;;6.80;99.90;;;;;;5048459;28;20033;-64
2023/11/09 06:51:45;;;;;;;11.43;4.68;;;6.80;99.90;;;;;;5053527;28;20415;-72
2023/11/09 06:54:12;;;;;;;13.23;5.20;;;6.80;99.90;;;;;;5050532;28;20459;-62
2023/11/09 06:56:39;;;;;;;8.70;4.93;;;6.80;99.90;;;;;;5049314;28;20045;-68
2023/11/09 06:59:08;;;;;;;8.70;4.70;;;6.80;99.90;;;;;;5050479;28;20041;-63
2023/11/09 07:01:35;;;;;;;14.52;5.95;;;6.80;99.90;;;;;;5049954;28;20483;-62
2023/11/09 07:04:02;;;;;;;9.52;5.88;;;6.90;99.90;;;;;;5053133;28;20411;-64
2023/11/09 07:06:29;;;;;;;13.35;5.43;;;7.00;99.90;;;;;;5053295;28;20161;-62
2023/11/09 07:08:57;;;;;;;10.45;5.57;;;7.00;99.90;;;;;;5054690;28;20372;-62
2023/11/09 07:11:23;;;;;;;12.07;6.45;;;7.00;99.90;;;;;;5057023;28;20064;-61
2023/11/09 07:13:50;;;;;;;18.73;8.30;;;7.00;99.90;;;;;;5039348;28;20081;-62
2023/11/09 07:16:18;;;;;;;17.50;8.57;;;7.10;99.90;;;;;;5035948;28;20099;-68
2023/11/09 07:18:45;;;;;;;14.25;7.88;;;7.10;99.90;;;;;;5041740;28;20052;-63
2023/11/09 07:21:13;;;;;;;12.50;7.85;;;7.10;99.90;;;;;;5038463;28;20042;-62
2023/11/09 07:23:40;;;;;;;13.70;7.72;;;7.20;99.90;;;;;;5051873;28;20045;-62
2023/11/09 07:26:07;;;;;;;13.00;8.52;;;7.20;99.90;;;;;;5053026;28;20056;-64
2023/11/09 07:28:34;;;;;;;17.65;10.48;;;7.20;99.90;;;;;;5052814;28;20478;-65
2023/11/09 07:31:01;;;;;;;13.45;8.65;;;7.20;99.90;;;;;;5054971;28;20065;-61
2023/11/09 07:33:28;;;;;;;16.48;9.20;;;7.20;99.90;;;;;;5051339;28;20115;-64
2023/11/09 07:35:57;;;;;;;17.25;9.75;;;7.30;99.90;;;;;;5051866;28;20066;-64
2023/11/09 07:38:26;;;;;;;17.37;10.63;;;7.30;99.90;;;;;;5049793;28;20043;-67
2023/11/09 07:40:53;;;;;;;15.98;10.30;;;7.30;99.90;;;;;;5046638;28;20044;-65
2023/11/09 07:43:23;;;;;;;19.80;10.70;;;7.30;99.90;;;;;;5049779;28;20040;-65
2023/11/09 07:45:50;;;;;;;15.15;11.38;;;7.40;99.90;;;;;;5055057;28;20040;-65
2023/11/09 07:48:17;;;;;;;15.85;11.00;;;7.40;99.90;;;;;;5053380;28;20037;-62
2023/11/09 07:50:46;;;;;;;16.35;9.60;;;7.40;99.90;;;;;;5051069;28;20044;-63
2023/11/09 07:53:13;;;;;;;21.63;11.52;;;7.50;99.90;;;;;;5049650;28;20053;-62
2023/11/09 07:55:41;;;;;;;42.60;12.80;;;7.50;99.90;;;;;;5053928;28;20037;-61
2023/11/09 07:58:08;;;;;;;21.85;11.40;;;7.50;99.90;;;;;;5053054;28;20371;-62
2023/11/09 08:00:35;;;;;;;14.00;10.73;;;7.50;99.90;;;;;;5046253;28;20066;-64
2023/11/09 08:03:03;;;;;;;21.48;11.32;;;7.60;99.90;;;;;;5040397;28;20426;-75
2023/11/09 08:05:32;;;;;;;20.15;10.27;;;7.60;99.90;;;;;;5042232;28;20057;-61
2023/11/09 08:08:00;;;;;;;13.82;10.73;;;7.60;99.90;;;;;;5032967;28;20052;-66
2023/11/09 08:10:27;;;;;;;15.85;9.18;;;7.70;99.90;;;;;;5030028;28;20120;-64
2023/11/09 08:12:55;;;;;;;15.77;9.55;;;7.70;99.90;;;;;;5028559;28;20045;-65
2023/11/09 08:15:22;;;;;;;19.90;10.90;;;7.70;99.90;;;;;;5030298;28;20042;-63
2023/11/09 08:17:49;;;;;;;16.75;11.68;;;7.70;99.90;;;;;;5026566;28;20048;-63
2023/11/09 08:20:16;;;;;;;14.60;10.25;;;7.70;99.90;;;;;;5032314;28;20124;-64
2023/11/09 08:22:45;;;;;;;17.00;9.98;;;7.70;99.90;;;;;;5029765;28;20040;-62
2023/11/09 08:25:14;;;;;;;18.08;10.40;;;7.70;99.90;;;;;;5030732;28;20032;-64
2023/11/09 08:27:42;;;;;;;18.15;9.48;;;7.80;99.90;;;;;;5027801;28;20037;-61
2023/11/09 08:30:10;;;;;;;13.98;9.10;;;7.70;99.90;;;;;;5030148;28;20095;-61
2023/11/09 08:32:38;;;;;;;11.90;8.80;;;7.80;99.90;;;;;;5032628;28;20111;-61
2023/11/09 08:35:15;;;;;;;19.63;9.95;;;7.80;99.90;;;;;;5026400;28;20091;-63
2023/11/09 08:37:42;;;;;;;16.58;10.07;;;7.80;99.90;;;;;;5028083;28;20049;-67
2023/11/09 08:40:23;;;;;;;21.35;9.00;;;7.90;99.90;;;;;;5027560;28;20034;-61
2023/11/09 08:42:53;;;;;;;10.48;8.25;;;7.90;99.90;;;;;;5030976;28;20384;-64
2023/11/09 08:45:23;;;;;;;15.18;9.65;;;7.90;99.90;;;;;;5029205;28;20052;-63
2023/11/09 08:47:54;;;;;;;14.98;9.02;;;8.00;99.90;;;;;;5010521;28;20191;-61
2023/11/09 08:50:21;;;;;;;25.45;11.68;;;8.00;99.90;;;;;;5026292;28;20049;-61
2023/11/09 08:52:48;;;;;;;12.77;9.02;;;8.00;99.90;;;;;;5041751;28;20572;-62
2023/11/09 08:55:16;;;;;;;13.35;8.85;;;8.10;99.90;;;;;;5023753;28;20065;-63
2023/11/09 08:57:43;;;;;;;16.60;10.30;;;8.10;99.90;;;;;;5029328;28;20483;-61
2023/11/09 09:00:16;;;;;;;14.65;9.75;;;8.10;99.90;;;;;;5028675;28;20388;-62
2023/11/09 09:02:48;;;;;;;20.67;9.38;;;8.20;99.90;;;;;;5028090;28;20048;-62
2023/11/09 09:05:17;;;;;;;18.30;10.32;;;8.20;99.90;;;;;;5030872;28;20037;-63
2023/11/09 09:07:46;;;;;;;15.20;9.40;;;8.30;99.90;;;;;;5033558;28;20048;-62
2023/11/09 09:10:15;;;;;;;15.10;9.15;;;8.30;99.90;;;;;;5028382;28;20046;-63
2023/11/09 09:12:44;;;;;;;25.65;10.30;;;8.30;99.90;;;;;;5032113;28;20053;-60
2023/11/09 09:15:16;;;;;;;14.90;9.63;;;8.40;99.90;;;;;;5024619;28;20048;-62
2023/11/09 09:17:44;;;;;;;17.48;9.48;;;8.40;99.90;;;;;;5034442;28;20047;-61
2023/11/09 09:20:12;;;;;;;13.27;8.60;;;8.40;99.90;;;;;;5029507;28;20044;-62
2023/11/09 09:22:43;;;;;;;15.60;9.13;;;8.40;99.90;;;;;;5027299;28;20554;-63
2023/11/09 09:25:10;;;;;;;17.15;10.10;;;8.40;99.90;;;;;;5029160;28;20446;-63
2023/11/09 09:27:41;;;;;;;12.05;8.57;;;8.40;99.90;;;;;;5025655;28;20046;-62
2023/11/09 09:30:10;;;;;;;16.02;9.38;;;8.40;99.90;;;;;;5034142;28;20049;-62
2023/11/09 09:32:38;;;;;;;13.25;9.00;;;8.40;99.90;;;;;;5026029;28;20519;-62
2023/11/09 09:35:06;;;;;;;12.98;7.95;;;8.50;99.90;;;;;;5024333;28;20147;-63
2023/11/09 09:37:37;;;;;;;12.23;7.72;;;8.50;99.90;;;;;;5030770;28;20099;-62
2023/11/09 09:40:15;;;;;;;11.63;8.52;;;8.50;99.90;;;;;;5022586;28;20042;-62
2023/11/09 09:42:44;;;;;;;10.23;8.65;;;8.50;99.90;;;;;;5028724;28;20030;-66
2023/11/09 09:45:15;;;;;;;12.40;7.85;;;8.60;99.90;;;;;;5033527;28;20046;-63
2023/11/09 09:47:48;;;;;;;13.70;8.05;;;8.60;99.90;;;;;;5022343;28;20041;-62
2023/11/09 09:50:22;;;;;;;15.35;8.15;;;8.60;99.90;;;;;;5034908;28;20045;-62
2023/11/09 09:52:59;;;;;;;14.73;8.40;;;8.60;99.90;;;;;;5024079;28;20046;-65
2023/11/09 09:55:27;;;;;;;15.00;8.73;;;8.70;99.90;;;;;;5022016;28;20127;-66
2023/11/09 09:57:54;;;;;;;10.90;8.27;;;8.70;99.90;;;;;;5031926;28;20076;-67
2023/11/09 10:00:26;;;;;;;16.23;9.82;;;8.70;99.90;;;;;;5033811;28;20487;-64
2023/11/09 10:02:58;;;;;;;13.00;8.23;;;8.70;99.90;;;;;;5032134;28;20467;-65
2023/11/09 10:05:27;;;;;;;16.90;11.25;;;8.80;99.90;;;;;;5028908;28;20403;-64
2023/11/09 10:08:03;;;;;;;13.98;10.65;;;8.80;99.90;;;;;;5051042;28;20057;-69
2023/11/09 10:10:38;;;;;;;38.85;10.57;;;8.90;99.90;;;;;;5045875;28;20049;-61
2023/11/09 10:13:10;;;;;;;16.55;9.90;;;8.90;99.90;;;;;;5042392;28;20044;-61
2023/11/09 10:15:38;;;;;;;19.23;9.65;;;8.90;99.90;;;;;;5046754;28;20045;-67
2023/11/09 10:18:05;;;;;;;14.88;9.35;;;9.00;99.90;;;;;;5048390;28;20040;-62
2023/11/09 10:20:32;;;;;;;17.05;10.77;;;9.00;99.90;;;;;;5050284;28;20033;-61
2023/11/09 10:23:03;;;;;;;17.75;9.25;;;9.00;99.90;;;;;;5049507;28;20402;-66
2023/11/09 10:25:32;;;;;;;12.90;9.02;;;9.10;99.90;;;;;;5057299;28;20052;-63
2023/11/09 10:28:00;;;;;;;10.07;8.98;;;9.10;99.90;;;;;;5051251;28;20069;-66
2023/11/09 10:30:35;;;;;;;15.63;8.70;;;9.10;99.90;;;;;;5050349;28;20069;-62
2023/11/09 10:33:07;;;;;;;10.25;9.13;;;9.10;99.90;;;;;;5054164;28;20044;-62
2023/11/09 10:35:39;;;;;;;11.77;9.02;;;9.10;99.90;;;;;;5054774;28;20048;-62
2023/11/09 10:38:12;;;;;;;14.02;9.80;;;9.10;99.90;;;;;;5049923;28;20032;-64
2023/11/09 10:40:42;;;;;;;9.18;6.80;;;9.20;99.90;;;;;;5049966;28;20851;-66
2023/11/09 10:43:33;;;;;;;13.38;8.68;;;9.10;99.90;;;;;;5045570;28;20045;-64
2023/11/09 10:46:08;;;;;;;17.08;8.63;;;9.10;99.90;;;;;;5056343;28;20397;-66
2023/11/09 10:48:40;;;;;;;9.80;6.60;;;9.10;99.90;;;;;;5048768;28;20045;-63
2023/11/09 10:51:09;;;;;;;8.63;6.47;;;9.20;99.90;;;;;;5057421;28;20057;-64
2023/11/09 10:53:37;;;;;;;8.38;6.78;;;9.20;99.90;;;;;;5055186;28;20048;-63
2023/11/09 10:56:10;;;;;;;11.10;6.32;;;9.20;99.90;;;;;;5042202;28;20063;-61
2023/11/09 10:58:40;;;;;;;8.43;6.13;;;9.20;99.90;;;;;;5057290;28;20090;-65
2023/11/09 11:01:11;;;;;;;11.40;6.03;;;9.20;99.90;;;;;;5054314;28;20615;-63
2023/11/09 11:03:44;;;;;;;15.45;6.20;;;9.20;99.90;;;;;;5047981;28;20049;-64
2023/11/09 11:06:16;;;;;;;10.25;4.70;;;9.20;99.90;;;;;;5035810;28;20407;-63
2023/11/09 11:08:47;;;;;;;10.23;5.20;;;9.30;99.90;;;;;;5028294;28;20034;-61
2023/11/09 11:11:28;;;;;;;9.13;4.00;;;9.40;99.90;;;;;;5031469;28;20502;-71
2023/11/09 11:14:03;;;;;;;7.15;3.63;;;9.40;99.90;;;;;;5036203;28;20045;-64
2023/11/09 11:16:48;;;;;;;8.88;3.40;;;9.40;99.90;;;;;;5025673;28;20096;-61
2023/11/09 11:19:54;;;;;;;5.93;3.65;;;9.50;99.90;;;;;;5022366;28;20058;-62
2023/11/09 11:22:48;;;;;;;5.80;3.67;;;9.40;99.90;;;;;;4942974;28;20482;-64
2023/11/09 11:25:50;;;;;;;6.20;2.95;;;9.40;99.90;;;;;;4943853;28;20441;-69
2023/11/09 11:28:18;;;;;;;8.40;3.35;;;9.40;99.90;;;;;;5024239;28;20084;-64
2023/11/09 11:30:45;;;;;;;5.10;3.13;;;9.40;99.90;;;;;;5022898;28;20060;-65
2023/11/09 11:33:16;;;;;;;7.47;4.40;;;9.40;99.90;;;;;;5030386;28;20819;-66
2023/11/09 11:35:46;;;;;;;6.07;2.58;;;9.50;99.90;;;;;;5028954;28;20054;-61
2023/11/09 11:38:13;;;;;;;13.18;3.65;;;9.50;99.90;;;;;;5027725;28;20056;-61
2023/11/09 11:40:42;;;;;;;3.78;2.42;;;9.50;99.90;;;;;;5029964;28;20033;-62
2023/11/09 11:43:11;;;;;;;5.10;2.80;;;9.60;99.90;;;;;;5032504;28;20119;-64
2023/11/09 11:45:41;;;;;;;5.03;2.30;;;9.60;99.90;;;;;;5035864;28;20042;-64
2023/11/09 11:48:51;;;;;;;5.20;3.00;;;9.60;99.90;;;;;;5032045;28;20050;-65
2023/11/09 11:51:18;;;;;;;3.35;2.45;;;9.60;99.90;;;;;;5014404;28;20061;-64
2023/11/09 11:53:52;;;;;;;4.65;2.30;;;9.60;99.90;;;;;;5030668;28;20388;-63
2023/11/09 11:56:30;;;;;;;3.95;3.00;;;9.60;99.90;;;;;;5029010;28;20128;-63
2023/11/09 11:59:00;;;;;;;4.63;2.20;;;9.50;99.90;;;;;;5030066;28;20077;-63
2023/11/09 12:01:29;;;;;;;4.03;2.88;;;9.50;99.90;;;;;;5031493;28;20045;-62
2023/11/09 12:04:06;;;;;;;6.60;3.83;;;9.50;99.90;;;;;;5023998;28;20044;-74
2023/11/09 12:06:37;;;;;;;5.30;3.20;;;9.50;99.90;;;;;;5048362;28;20064;-61
2023/11/09 12:09:08;;;;;;;3.78;2.50;;;9.50;99.90;;;;;;5052499;28;20036;-60
2023/11/09 12:11:47;;;;;;;3.75;2.97;;;9.40;99.90;;;;;;5049301;28;20604;-76
2023/11/09 12:14:18;;;;;;;4.55;2.45;;;9.40;99.90;;;;;;5050647;28;20558;-65
2023/11/09 12:16:46;;;;;;;3.88;2.05;;;9.50;99.90;;;;;;5056405;28;20072;-63
2023/11/09 12:19:14;;;;;;;8.50;2.55;;;9.50;99.90;;;;;;5049593;28;20123;-61
2023/11/09 12:21:45;;;;;;;4.57;2.08;;;9.50;99.90;;;;;;5050345;28;20037;-62
2023/11/09 12:24:18;;;;;;;;;;;9.50;99.90;;;;;;5051088;28;20033;-61
2023/11/09 12:26:45;;;;;;;3.20;2.78;;;9.50;99.90;;;;;;5050883;28;19924;-62
2023/11/09 12:29:15;;;;;;;2.83;2.47;;;9.50;99.90;;;;;;5061507;28;20063;-65
2023/11/09 12:31:44;;;;;;;6.07;2.65;;;9.50;99.90;;;;;;5051934;28;20044;-63
2023/11/09 12:34:14;;;;;;;5.22;2.95;;;9.50;99.90;;;;;;5054841;28;20032;-68
2023/11/09 12:36:51;;;;;;;5.18;3.22;;;9.50;99.90;;;;;;5049270;28;20037;-63
2023/11/09 12:39:31;;;;;;;6.13;2.88;;;9.50;99.90;;;;;;5038718;28;20610;-67
2023/11/09 12:42:06;;;;;;;9.02;3.88;;;9.50;99.90;;;;;;5046749;28;20079;-67
2023/11/09 12:44:35;;;;;;;6.47;2.60;;;9.40;99.90;;;;;;5051654;28;20045;-63
2023/11/09 12:47:08;;;;;;;6.28;3.25;;;9.40;99.90;;;;;;5043344;28;20037;-69
2023/11/09 12:49:35;;;;;;;7.32;2.90;;;9.40;99.90;;;;;;5057137;28;20502;-61
2023/11/09 12:52:05;;;;;;;9.45;3.53;;;9.40;99.90;;;;;;5047963;28;20052;-69
2023/11/09 12:54:33;;;;;;;5.30;3.17;;;9.30;99.90;;;;;;5053283;28;20751;-61
2023/11/09 12:57:04;;;;;;;;;;;9.40;99.90;;;;;;5018978;28;20510;-63
2023/11/09 12:59:33;;;;;;;6.90;2.97;;;9.30;99.90;;;;;;5037883;28;19920;-65
2023/11/09 13:02:05;;;;;;;5.95;3.17;;;9.30;99.90;;;;;;5048805;28;20110;-67
2023/11/09 13:04:42;;;;;;;7.57;3.53;;;9.20;99.90;;;;;;5051466;28;20446;-60
2023/11/09 13:07:12;;;;;;;16.15;3.88;;;9.20;99.90;;;;;;5050624;28;20040;-61
2023/11/09 13:09:41;;;;;;;11.02;3.85;;;9.20;99.90;;;;;;5055915;28;20033;-60
2023/11/09 13:12:29;;;;;;;4.60;2.70;;;9.20;99.90;;;;;;5052241;28;20415;-67
2023/11/09 13:17:50;;;;;;;7.70;3.38;;;9.20;99.90;;;;;;5053278;28;20079;-61